sensor_id;sensor_type;location;lat;lon;timestamp;temperature;humidity
21193;DHT22;10754;51.106;7.164;2022-12-17T00:02:10;2.40;1.00
21193;DHT22;10754;51.106;7.164;2022-12-17T00:05:10;2.50;1.00
21193;DHT22;10754;51.106;7.164;2022-12-17T00:08:35;2.50;1.00
21193;DHT22;10754;51.106;7.164;2022-12-17T00:18:30;2.50;1.00
21193;DHT22;10754;51.106;7.164;2022-12-17T00:22:09;2.50;1.00
21193;DHT22;10754;51.106;7.164;2022-12-17T00:28:14;2.40;1.00
21193;DHT22;10754;51.106;7.164;2022-12-17T00:35:11;2.70;1.00
21193;DHT22;10754;51.106;7.164;2022-12-17T00:45:05;2.50;1.00
21193;DHT22;10754;51.106;7.164;2022-12-17T00:48:06;2.50;1.00
21193;DHT22;10754;51.106;7.164;2022-12-17T00:51:01;2.40;1.00
21193;DHT22;10754;51.106;7.164;2022-12-17T00:54:02;2.40;1.00
21193;DHT22;10754;51.106;7.164;2022-12-17T01:11:05;2.60;1.00
21193;DHT22;10754;51.106;7.164;2022-12-17T01:17:55;2.50;1.00
21193;DHT22;10754;51.106;7.164;2022-12-17T01:31:22;2.50;1.00
21193;DHT22;10754;51.106;7.164;2022-12-17T01:34:16;2.60;1.00
21193;DHT22;10754;51.106;7.164;2022-12-17T01:40:28;2.60;1.00
21193;DHT22;10754;51.106;7.164;2022-12-17T01:47:22;2.50;1.00
21193;DHT22;10754;51.106;7.164;2022-12-17T01:53:35;2.50;1.00
21193;DHT22;10754;51.106;7.164;2022-12-17T01:57:11;2.60;1.00
21193;DHT22;10754;51.106;7.164;2022-12-17T02:00:09;2.60;1.00
21193;DHT22;10754;51.106;7.164;2022-12-17T02:06:33;2.70;1.00
21193;DHT22;10754;51.106;7.164;2022-12-17T02:09:41;2.60;1.00
21193;DHT22;10754;51.106;7.164;2022-12-17T02:16:56;2.60;1.00
21193;DHT22;10754;51.106;7.164;2022-12-17T02:20:05;2.60;1.00
21193;DHT22;10754;51.106;7.164;2022-12-17T02:33:37;2.50;1.00
21193;DHT22;10754;51.106;7.164;2022-12-17T02:42:48;2.50;1.00
21193;DHT22;10754;51.106;7.164;2022-12-17T02:45:42;2.50;1.00
21193;DHT22;10754;51.106;7.164;2022-12-17T02:55:36;2.70;1.00
21193;DHT22;10754;51.106;7.164;2022-12-17T03:09:30;2.40;1.00
21193;DHT22;10754;51.106;7.164;2022-12-17T03:12:55;2.40;1.00
21193;DHT22;10754;51.106;7.164;2022-12-17T03:19:50;2.30;1.00
21193;DHT22;10754;51.106;7.164;2022-12-17T03:26:01;2.10;1.00
21193;DHT22;10754;51.106;7.164;2022-12-17T03:42:51;2.10;1.00
21193;DHT22;10754;51.106;7.164;2022-12-17T03:45:58;2.30;1.00
21193;DHT22;10754;51.106;7.164;2022-12-17T03:48:54;2.30;1.00
21193;DHT22;10754;51.106;7.164;2022-12-17T03:51:58;2.20;1.00
21193;DHT22;10754;51.106;7.164;2022-12-17T03:55:23;2.10;1.00
21193;DHT22;10754;51.106;7.164;2022-12-17T04:01:35;2.00;1.00
21193;DHT22;10754;51.106;7.164;2022-12-17T04:41:18;1.90;1.00
21193;DHT22;10754;51.106;7.164;2022-12-17T04:51:29;1.80;1.00
21193;DHT22;10754;51.106;7.164;2022-12-17T05:04:54;1.80;1.00
21193;DHT22;10754;51.106;7.164;2022-12-17T05:08:02;1.60;1.00
21193;DHT22;10754;51.106;7.164;2022-12-17T05:11:10;1.60;1.00
21193;DHT22;10754;51.106;7.164;2022-12-17T05:14:00;1.60;1.00
21193;DHT22;10754;51.106;7.164;2022-12-17T05:26:57;1.50;1.00
21193;DHT22;10754;51.106;7.164;2022-12-17T05:29:46;1.50;1.00
21193;DHT22;10754;51.106;7.164;2022-12-17T05:32:46;1.40;1.00
21193;DHT22;10754;51.106;7.164;2022-12-17T05:35:48;1.30;1.00
21193;DHT22;10754;51.106;7.164;2022-12-17T05:41:58;1.30;1.00
21193;DHT22;10754;51.106;7.164;2022-12-17T05:45:18;1.40;1.00
21193;DHT22;10754;51.106;7.164;2022-12-17T05:48:13;1.40;1.00
21193;DHT22;10754;51.106;7.164;2022-12-17T05:51:07;1.20;1.00
21193;DHT22;10754;51.106;7.164;2022-12-17T05:57:59;1.00;1.00
21193;DHT22;10754;51.106;7.164;2022-12-17T06:00:53;1.00;1.00
21193;DHT22;10754;51.106;7.164;2022-12-17T06:10:16;1.00;1.00
21193;DHT22;10754;51.106;7.164;2022-12-17T06:13:06;1.00;1.00
21193;DHT22;10754;51.106;7.164;2022-12-17T06:15:53;1.00;1.00
21193;DHT22;10754;51.106;7.164;2022-12-17T06:19:06;1.00;1.00
21193;DHT22;10754;51.106;7.164;2022-12-17T06:21:56;1.00;1.00
21193;DHT22;10754;51.106;7.164;2022-12-17T06:24:43;1.00;1.00
21193;DHT22;10754;51.106;7.164;2022-12-17T06:27:27;1.00;1.00
21193;DHT22;10754;51.106;7.164;2022-12-17T06:30:11;0.90;1.00
21193;DHT22;10754;51.106;7.164;2022-12-17T06:33:03;0.90;1.00
21193;DHT22;10754;51.106;7.164;2022-12-17T06:35:47;1.00;1.00
21193;DHT22;10754;51.106;7.164;2022-12-17T06:38:31;1.00;1.00
21193;DHT22;10754;51.106;7.164;2022-12-17T06:41:15;0.80;1.00
21193;DHT22;10754;51.106;7.164;2022-12-17T06:43:59;0.80;1.00
21193;DHT22;10754;51.106;7.164;2022-12-17T06:46:43;1.00;1.00
21193;DHT22;10754;51.106;7.164;2022-12-17T06:49:27;0.80;1.00
21193;DHT22;10754;51.106;7.164;2022-12-17T06:52:11;0.70;1.00
21193;DHT22;10754;51.106;7.164;2022-12-17T06:54:55;0.80;1.00
21193;DHT22;10754;51.106;7.164;2022-12-17T06:57:39;0.80;1.00
21193;DHT22;10754;51.106;7.164;2022-12-17T07:00:23;0.80;1.00
21193;DHT22;10754;51.106;7.164;2022-12-17T07:03:10;0.90;1.00
21193;DHT22;10754;51.106;7.164;2022-12-17T07:05:54;0.80;1.00
21193;DHT22;10754;51.106;7.164;2022-12-17T07:08:38;0.70;1.00
21193;DHT22;10754;51.106;7.164;2022-12-17T07:11:22;0.60;1.00
21193;DHT22;10754;51.106;7.164;2022-12-17T07:14:07;0.60;1.00
21193;DHT22;10754;51.106;7.164;2022-12-17T07:16:51;0.60;1.00
21193;DHT22;10754;51.106;7.164;2022-12-17T07:19:35;0.60;1.00
21193;DHT22;10754;51.106;7.164;2022-12-17T07:22:19;0.40;1.00
21193;DHT22;10754;51.106;7.164;2022-12-17T07:25:03;0.50;1.00
21193;DHT22;10754;51.106;7.164;2022-12-17T07:27:56;0.20;1.00
21193;DHT22;10754;51.106;7.164;2022-12-17T07:30:40;0.30;1.00
21193;DHT22;10754;51.106;7.164;2022-12-17T07:33:24;0.10;1.00
21193;DHT22;10754;51.106;7.164;2022-12-17T07:36:08;0.20;1.00
21193;DHT22;10754;51.106;7.164;2022-12-17T07:38:52;0.10;1.00
21193;DHT22;10754;51.106;7.164;2022-12-17T07:41:37;-0.10;1.00
21193;DHT22;10754;51.106;7.164;2022-12-17T07:44:21;-0.10;1.00
21193;DHT22;10754;51.106;7.164;2022-12-17T07:47:05;0.00;1.00
21193;DHT22;10754;51.106;7.164;2022-12-17T07:49:49;0.20;1.00
21193;DHT22;10754;51.106;7.164;2022-12-17T07:52:33;0.10;1.00
21193;DHT22;10754;51.106;7.164;2022-12-17T07:55:28;0.00;1.00
21193;DHT22;10754;51.106;7.164;2022-12-17T07:58:12;-0.30;1.00
21193;DHT22;10754;51.106;7.164;2022-12-17T08:01:00;-0.40;1.00
21193;DHT22;10754;51.106;7.164;2022-12-17T08:03:45;-0.40;1.00
21193;DHT22;10754;51.106;7.164;2022-12-17T08:06:29;-0.20;1.00
21193;DHT22;10754;51.106;7.164;2022-12-17T08:09:13;-0.20;1.00
21193;DHT22;10754;51.106;7.164;2022-12-17T08:11:57;-0.10;1.00
21193;DHT22;10754;51.106;7.164;2022-12-17T08:15:09;-0.30;1.00
21193;DHT22;10754;51.106;7.164;2022-12-17T08:18:04;-0.30;1.00
21193;DHT22;10754;51.106;7.164;2022-12-17T08:21:14;-0.40;1.00
21193;DHT22;10754;51.106;7.164;2022-12-17T08:24:06;-0.50;1.00
21193;DHT22;10754;51.106;7.164;2022-12-17T08:30:56;-0.70;1.00
21193;DHT22;10754;51.106;7.164;2022-12-17T08:33:44;-0.60;1.00
21193;DHT22;10754;51.106;7.164;2022-12-17T08:39:56;-0.80;1.00
21193;DHT22;10754;51.106;7.164;2022-12-17T08:45:55;-0.60;1.00
21193;DHT22;10754;51.106;7.164;2022-12-17T08:48:48;-0.70;1.00
21193;DHT22;10754;51.106;7.164;2022-12-17T08:51:35;-0.80;1.00
21193;DHT22;10754;51.106;7.164;2022-12-17T08:54:56;-0.70;1.00
21193;DHT22;10754;51.106;7.164;2022-12-17T09:01:05;-0.90;1.00
21193;DHT22;10754;51.106;7.164;2022-12-17T09:04:05;-0.90;1.00
21193;DHT22;10754;51.106;7.164;2022-12-17T09:06:49;-1.00;1.00
21193;DHT22;10754;51.106;7.164;2022-12-17T09:09:46;-1.00;1.00
21193;DHT22;10754;51.106;7.164;2022-12-17T09:15:43;-0.70;1.00
21193;DHT22;10754;51.106;7.164;2022-12-17T09:18:36;-0.80;1.00
21193;DHT22;10754;51.106;7.164;2022-12-17T09:21:29;-0.80;1.00
21193;DHT22;10754;51.106;7.164;2022-12-17T09:24:24;-0.90;1.00
21193;DHT22;10754;51.106;7.164;2022-12-17T09:27:21;-1.00;1.00
21193;DHT22;10754;51.106;7.164;2022-12-17T09:30:14;-0.90;1.00
21193;DHT22;10754;51.106;7.164;2022-12-17T09:33:19;-0.90;1.00
21193;DHT22;10754;51.106;7.164;2022-12-17T09:36:14;-0.90;1.00
21193;DHT22;10754;51.106;7.164;2022-12-17T09:49:45;-0.50;1.00
21193;DHT22;10754;51.106;7.164;2022-12-17T09:52:56;-0.50;1.00
21193;DHT22;10754;51.106;7.164;2022-12-17T09:55:50;-0.30;1.00
21193;DHT22;10754;51.106;7.164;2022-12-17T10:01:52;0.00;1.00
21193;DHT22;10754;51.106;7.164;2022-12-17T10:04:52;-0.10;1.00
21193;DHT22;10754;51.106;7.164;2022-12-17T10:11:53;-0.20;1.00
21193;DHT22;10754;51.106;7.164;2022-12-17T10:14:45;-0.20;1.00
21193;DHT22;10754;51.106;7.164;2022-12-17T10:21:01;-0.10;1.00
21193;DHT22;10754;51.106;7.164;2022-12-17T10:24:18;-0.10;1.00
21193;DHT22;10754;51.106;7.164;2022-12-17T10:27:10;0.10;1.00
21193;DHT22;10754;51.106;7.164;2022-12-17T10:29:54;0.10;1.00
21193;DHT22;10754;51.106;7.164;2022-12-17T10:32:42;0.30;1.00
21193;DHT22;10754;51.106;7.164;2022-12-17T10:35:34;0.20;1.00
21193;DHT22;10754;51.106;7.164;2022-12-17T10:38:30;0.20;1.00
21193;DHT22;10754;51.106;7.164;2022-12-17T10:44:37;0.20;1.00
21193;DHT22;10754;51.106;7.164;2022-12-17T10:47:47;0.30;1.00
21193;DHT22;10754;51.106;7.164;2022-12-17T10:50:47;0.30;1.00
21193;DHT22;10754;51.106;7.164;2022-12-17T11:00:35;0.70;1.00
21193;DHT22;10754;51.106;7.164;2022-12-17T11:06:50;2.40;1.00
21193;DHT22;10754;51.106;7.164;2022-12-17T11:14:07;2.50;1.00
21193;DHT22;10754;51.106;7.164;2022-12-17T11:17:36;2.40;1.00
21193;DHT22;10754;51.106;7.164;2022-12-17T11:30:48;3.10;1.00
21193;DHT22;10754;51.106;7.164;2022-12-17T11:54:22;4.30;1.00
21193;DHT22;10754;51.106;7.164;2022-12-17T12:38:09;4.50;1.00
21193;DHT22;10754;51.106;7.164;2022-12-17T12:47:41;4.50;1.00
21193;DHT22;10754;51.106;7.164;2022-12-17T12:57:38;4.30;1.00
21193;DHT22;10754;51.106;7.164;2022-12-17T13:04:41;3.90;1.00
21193;DHT22;10754;51.106;7.164;2022-12-17T13:17:44;3.80;1.00
21193;DHT22;10754;51.106;7.164;2022-12-17T13:51:42;3.00;1.00
21193;DHT22;10754;51.106;7.164;2022-12-17T13:54:51;2.90;1.00
21193;DHT22;10754;51.106;7.164;2022-12-17T13:57:44;3.00;1.00
21193;DHT22;10754;51.106;7.164;2022-12-17T14:04:25;3.10;1.00
21193;DHT22;10754;51.106;7.164;2022-12-17T14:07:12;2.90;1.00
21193;DHT22;10754;51.106;7.164;2022-12-17T14:13:33;3.00;1.00
21193;DHT22;10754;51.106;7.164;2022-12-17T14:17:03;3.00;1.00
21193;DHT22;10754;51.106;7.164;2022-12-17T14:19:58;2.60;1.00
21193;DHT22;10754;51.106;7.164;2022-12-17T14:30:01;2.40;1.00
21193;DHT22;10754;51.106;7.164;2022-12-17T14:40:05;2.30;1.00
21193;DHT22;10754;51.106;7.164;2022-12-17T14:43:18;2.40;1.00
21193;DHT22;10754;51.106;7.164;2022-12-17T14:56:54;2.20;1.00
21193;DHT22;10754;51.106;7.164;2022-12-17T14:59:38;2.20;1.00
21193;DHT22;10754;51.106;7.164;2022-12-17T15:03:39;2.10;1.00
21193;DHT22;10754;51.106;7.164;2022-12-17T15:10:27;2.10;1.00
21193;DHT22;10754;51.106;7.164;2022-12-17T15:13:27;2.00;1.00
21193;DHT22;10754;51.106;7.164;2022-12-17T15:26:16;1.80;1.00
21193;DHT22;10754;51.106;7.164;2022-12-17T15:29:23;1.80;1.00
21193;DHT22;10754;51.106;7.164;2022-12-17T15:32:22;1.70;1.00
21193;DHT22;10754;51.106;7.164;2022-12-17T15:35:06;1.60;1.00
21193;DHT22;10754;51.106;7.164;2022-12-17T15:38:20;1.40;1.00
21193;DHT22;10754;51.106;7.164;2022-12-17T15:41:05;1.40;1.00
21193;DHT22;10754;51.106;7.164;2022-12-17T15:47:28;1.50;1.00
21193;DHT22;10754;51.106;7.164;2022-12-17T15:50:34;1.40;1.00
21193;DHT22;10754;51.106;7.164;2022-12-17T15:56:03;1.30;1.00
21193;DHT22;10754;51.106;7.164;2022-12-17T16:01:46;1.40;1.00
21193;DHT22;10754;51.106;7.164;2022-12-17T16:04:44;1.40;1.00
21193;DHT22;10754;51.106;7.164;2022-12-17T16:08:06;1.40;1.00
21193;DHT22;10754;51.106;7.164;2022-12-17T16:10:37;1.40;1.00
21193;DHT22;10754;51.106;7.164;2022-12-17T16:22:47;1.30;1.00
21193;DHT22;10754;51.106;7.164;2022-12-17T16:28:34;1.20;1.00
21193;DHT22;10754;51.106;7.164;2022-12-17T16:31:06;1.10;1.00
21193;DHT22;10754;51.106;7.164;2022-12-17T16:37:32;1.10;1.00
21193;DHT22;10754;51.106;7.164;2022-12-17T16:40:29;1.00;1.00
21193;DHT22;10754;51.106;7.164;2022-12-17T16:49:32;1.00;1.00
21193;DHT22;10754;51.106;7.164;2022-12-17T16:52:08;0.90;1.00
21193;DHT22;10754;51.106;7.164;2022-12-17T16:54:41;0.90;1.00
21193;DHT22;10754;51.106;7.164;2022-12-17T16:57:15;0.90;1.00
21193;DHT22;10754;51.106;7.164;2022-12-17T17:06:17;0.90;1.00
21193;DHT22;10754;51.106;7.164;2022-12-17T17:08:56;0.90;1.00
21193;DHT22;10754;51.106;7.164;2022-12-17T17:11:39;0.90;1.00
21193;DHT22;10754;51.106;7.164;2022-12-17T17:24:47;0.90;1.00
21193;DHT22;10754;51.106;7.164;2022-12-17T17:33:35;0.90;1.00
21193;DHT22;10754;51.106;7.164;2022-12-17T17:36:28;0.90;1.00
21193;DHT22;10754;51.106;7.164;2022-12-17T17:39:43;0.80;1.00
21193;DHT22;10754;51.106;7.164;2022-12-17T17:42:45;0.80;1.00
21193;DHT22;10754;51.106;7.164;2022-12-17T17:45:36;0.80;1.00
21193;DHT22;10754;51.106;7.164;2022-12-17T17:48:07;0.80;1.00
21193;DHT22;10754;51.106;7.164;2022-12-17T17:51:37;0.70;1.00
21193;DHT22;10754;51.106;7.164;2022-12-17T17:53:54;0.90;1.00
21193;DHT22;10754;51.106;7.164;2022-12-17T17:56:59;0.80;1.00
21193;DHT22;10754;51.106;7.164;2022-12-17T18:00:23;0.80;1.00
21193;DHT22;10754;51.106;7.164;2022-12-17T18:03:09;0.80;1.00
21193;DHT22;10754;51.106;7.164;2022-12-17T18:09:07;0.80;1.00
21193;DHT22;10754;51.106;7.164;2022-12-17T18:12:13;0.80;1.00
21193;DHT22;10754;51.106;7.164;2022-12-17T18:21:47;0.90;1.00
21193;DHT22;10754;51.106;7.164;2022-12-17T18:24:58;0.90;1.00
21193;DHT22;10754;51.106;7.164;2022-12-17T18:28:14;0.80;1.00
21193;DHT22;10754;51.106;7.164;2022-12-17T18:31:14;0.90;1.00
21193;DHT22;10754;51.106;7.164;2022-12-17T18:51:05;0.90;1.00
21193;DHT22;10754;51.106;7.164;2022-12-17T18:54:23;1.00;1.00
21193;DHT22;10754;51.106;7.164;2022-12-17T19:04:27;1.00;1.00
21193;DHT22;10754;51.106;7.164;2022-12-17T19:07:26;1.10;1.00
21193;DHT22;10754;51.106;7.164;2022-12-17T19:10:24;1.20;1.00
21193;DHT22;10754;51.106;7.164;2022-12-17T19:13:17;1.10;1.00
21193;DHT22;10754;51.106;7.164;2022-12-17T19:16:19;1.10;1.00
21193;DHT22;10754;51.106;7.164;2022-12-17T19:19:27;1.10;1.00
21193;DHT22;10754;51.106;7.164;2022-12-17T19:22:02;1.10;1.00
21193;DHT22;10754;51.106;7.164;2022-12-17T19:24:33;1.10;1.00
21193;DHT22;10754;51.106;7.164;2022-12-17T19:30:25;1.30;1.00
21193;DHT22;10754;51.106;7.164;2022-12-17T19:33:27;1.20;1.00
21193;DHT22;10754;51.106;7.164;2022-12-17T19:40:05;0.90;1.00
21193;DHT22;10754;51.106;7.164;2022-12-17T19:42:57;0.90;1.00
21193;DHT22;10754;51.106;7.164;2022-12-17T19:59:40;1.00;1.00
21193;DHT22;10754;51.106;7.164;2022-12-17T20:02:21;1.00;1.00
21193;DHT22;10754;51.106;7.164;2022-12-17T20:12:05;1.00;1.00
21193;DHT22;10754;51.106;7.164;2022-12-17T20:28:35;0.90;1.00
21193;DHT22;10754;51.106;7.164;2022-12-17T20:31:51;0.90;1.00
21193;DHT22;10754;51.106;7.164;2022-12-17T20:38:25;0.90;1.00
21193;DHT22;10754;51.106;7.164;2022-12-17T20:41:58;0.90;1.00
21193;DHT22;10754;51.106;7.164;2022-12-17T20:48:35;1.00;1.00
21193;DHT22;10754;51.106;7.164;2022-12-17T21:01:52;0.90;1.00
21193;DHT22;10754;51.106;7.164;2022-12-17T21:08:14;1.00;1.00
21193;DHT22;10754;51.106;7.164;2022-12-17T21:11:44;1.00;1.00
21193;DHT22;10754;51.106;7.164;2022-12-17T21:18:09;0.90;1.00
21193;DHT22;10754;51.106;7.164;2022-12-17T21:27:43;0.90;1.00
21193;DHT22;10754;51.106;7.164;2022-12-17T21:30:28;0.90;1.00
21193;DHT22;10754;51.106;7.164;2022-12-17T21:33:13;1.00;1.00
21193;DHT22;10754;51.106;7.164;2022-12-17T21:36:07;1.00;1.00
21193;DHT22;10754;51.106;7.164;2022-12-17T21:41:45;1.00;1.00
21193;DHT22;10754;51.106;7.164;2022-12-17T21:44:37;1.10;1.00
21193;DHT22;10754;51.106;7.164;2022-12-17T21:47:11;1.10;1.00
21193;DHT22;10754;51.106;7.164;2022-12-17T21:53:07;1.10;1.00
21193;DHT22;10754;51.106;7.164;2022-12-17T21:55:38;1.10;1.00
21193;DHT22;10754;51.106;7.164;2022-12-17T21:58:12;1.20;1.00
21193;DHT22;10754;51.106;7.164;2022-12-17T22:03:44;1.30;1.00
21193;DHT22;10754;51.106;7.164;2022-12-17T22:06:35;1.10;1.00
21193;DHT22;10754;51.106;7.164;2022-12-17T22:09:17;1.10;1.00
21193;DHT22;10754;51.106;7.164;2022-12-17T22:12:14;1.10;1.00
21193;DHT22;10754;51.106;7.164;2022-12-17T22:15:05;1.20;1.00
21193;DHT22;10754;51.106;7.164;2022-12-17T22:17:55;1.10;1.00
21193;DHT22;10754;51.106;7.164;2022-12-17T22:20:34;1.10;1.00
21193;DHT22;10754;51.106;7.164;2022-12-17T22:23:14;1.10;1.00
21193;DHT22;10754;51.106;7.164;2022-12-17T22:26:21;1.10;1.00
21193;DHT22;10754;51.106;7.164;2022-12-17T22:28:59;1.10;1.00
21193;DHT22;10754;51.106;7.164;2022-12-17T22:31:43;1.10;1.00
21193;DHT22;10754;51.106;7.164;2022-12-17T22:34:27;1.10;1.00
21193;DHT22;10754;51.106;7.164;2022-12-17T22:37:16;1.00;1.00
21193;DHT22;10754;51.106;7.164;2022-12-17T22:39:47;1.00;1.00
21193;DHT22;10754;51.106;7.164;2022-12-17T22:42:15;0.80;1.00
21193;DHT22;10754;51.106;7.164;2022-12-17T22:45:04;0.90;1.00
21193;DHT22;10754;51.106;7.164;2022-12-17T22:53:26;0.90;1.00
21193;DHT22;10754;51.106;7.164;2022-12-17T22:56:11;1.00;1.00
21193;DHT22;10754;51.106;7.164;2022-12-17T22:58:37;1.10;1.00
21193;DHT22;10754;51.106;7.164;2022-12-17T23:01:17;1.40;1.00
21193;DHT22;10754;51.106;7.164;2022-12-17T23:04:13;1.50;1.00
21193;DHT22;10754;51.106;7.164;2022-12-17T23:07:08;1.50;1.00
21193;DHT22;10754;51.106;7.164;2022-12-17T23:09:54;1.30;1.00
21193;DHT22;10754;51.106;7.164;2022-12-17T23:12:30;1.20;1.00
21193;DHT22;10754;51.106;7.164;2022-12-17T23:15:33;1.40;1.00
21193;DHT22;10754;51.106;7.164;2022-12-17T23:18:17;1.50;1.00
21193;DHT22;10754;51.106;7.164;2022-12-17T23:21:03;1.50;1.00
21193;DHT22;10754;51.106;7.164;2022-12-17T23:23:32;1.40;1.00
21193;DHT22;10754;51.106;7.164;2022-12-17T23:26:15;1.50;1.00
21193;DHT22;10754;51.106;7.164;2022-12-17T23:28:50;1.60;1.00
21193;DHT22;10754;51.106;7.164;2022-12-17T23:31:27;1.50;1.00
21193;DHT22;10754;51.106;7.164;2022-12-17T23:33:59;1.60;1.00
21193;DHT22;10754;51.106;7.164;2022-12-17T23:36:45;1.50;1.00
21193;DHT22;10754;51.106;7.164;2022-12-17T23:39:13;1.40;1.00
21193;DHT22;10754;51.106;7.164;2022-12-17T23:41:58;1.40;1.00
21193;DHT22;10754;51.106;7.164;2022-12-17T23:44:37;1.30;1.00
21193;DHT22;10754;51.106;7.164;2022-12-17T23:47:15;1.30;1.00
21193;DHT22;10754;51.106;7.164;2022-12-17T23:49:49;1.30;1.00
21193;DHT22;10754;51.106;7.164;2022-12-17T23:52:21;1.30;1.00
21193;DHT22;10754;51.106;7.164;2022-12-17T23:54:52;1.40;1.00
21193;DHT22;10754;51.106;7.164;2022-12-17T23:57:47;1.40;1.00
